Ext Victor Braeger, Puerto Rico
Current Conditions -  °F | °C
As of 12:56 AM on Saturday 27 Dec 2014 (Local Time) from TJSJ Reporting Station
Scattered Clouds Scattered Clouds  
Wind Chill: 76°   Ceiling: Unl
Heat Index: 76°   Visibility: 10mi
Dew Point: 72°   Wind: 0mph
Humidity: 87%   Direction: NA
Pressure: 30.06"   Gusts: NA
Location:  18.3882°N, 66.1144°W
Report Text: TJSJ 270456Z 00000KT 10SM FEW028 SCT050 24/22 A3006 RMK AO2 SLP177 T02440222
Loading
Personal Weather Stations






























Interactive Weather Map New forecast layout! Learn more

10-Day Weather Forecast

Advertisements
Track Severe Weather on mobile